createdAt,value
2018-10-02T00:00:27.443Z,19.13
2018-10-02T00:01:27.401Z,19.11
2018-10-02T00:02:27.371Z,19.09
2018-10-02T00:03:27.243Z,19.11
2018-10-02T00:04:27.484Z,19.1
2018-10-02T00:05:27.848Z,19.11
2018-10-02T00:06:27.475Z,19.12
2018-10-02T00:07:27.290Z,19.13
2018-10-02T00:08:27.206Z,19.12
2018-10-02T00:09:27.483Z,19.09
2018-10-02T00:10:27.248Z,19.09
2018-10-02T00:11:27.340Z,19.09
2018-10-02T00:12:27.421Z,19.11
2018-10-02T00:13:27.419Z,19.1
2018-10-02T00:14:27.531Z,19.11
2018-10-02T00:15:27.298Z,19.08
2018-10-02T00:16:27.320Z,19.1
2018-10-02T00:17:27.857Z,19.09
2018-10-02T00:18:27.371Z,19.11
2018-10-02T00:19:27.258Z,19.1
2018-10-02T00:20:27.349Z,19.1
2018-10-02T00:21:27.729Z,19.09
2018-10-02T00:22:27.428Z,19.1
2018-10-02T00:23:27.493Z,19.08
2018-10-02T00:24:27.450Z,19.09
2018-10-02T00:25:27.316Z,19.09
2018-10-02T00:26:27.354Z,19.1
2018-10-02T00:27:27.329Z,19.09
2018-10-02T00:28:27.434Z,19.09
2018-10-02T00:29:27.801Z,19.09
2018-10-02T00:30:27.441Z,19.08
2018-10-02T00:31:28.325Z,19.11
2018-10-02T00:32:29.158Z,19.09
2018-10-02T00:33:27.672Z,19.11
2018-10-02T00:34:27.384Z,19.09
2018-10-02T00:35:27.407Z,19.09
2018-10-02T00:36:27.729Z,19.1
2018-10-02T00:37:27.444Z,19.09
2018-10-02T00:38:27.652Z,19.11
2018-10-02T00:39:27.716Z,19.11
2018-10-02T00:40:27.295Z,19.09
2018-10-02T00:41:27.386Z,19.08
2018-10-02T00:42:27.348Z,19.11
2018-10-02T00:43:27.200Z,19.12
2018-10-02T00:44:27.317Z,19.08
2018-10-02T00:45:27.767Z,19.08
2018-10-02T00:46:27.651Z,19.09
2018-10-02T00:47:27.681Z,19.09
2018-10-02T00:48:27.569Z,19.09
2018-10-02T00:49:27.456Z,19.07
2018-10-02T00:50:27.440Z,19.08
2018-10-02T00:51:27.398Z,19.09
2018-10-02T00:52:27.443Z,19.08
2018-10-02T00:53:27.216Z,19.09
2018-10-02T00:54:27.384Z,19.09
2018-10-02T00:55:27.256Z,19.08
2018-10-02T00:56:27.395Z,19.07
2018-10-02T00:57:27.730Z,19.08
2018-10-02T00:58:27.307Z,19.06
2018-10-02T00:59:27.297Z,19.07
2018-10-02T01:00:27.726Z,19.09
2018-10-02T01:01:27.331Z,19.09
2018-10-02T01:02:27.379Z,19.09
2018-10-02T01:03:27.313Z,19.07
2018-10-02T01:04:27.411Z,19.08
2018-10-02T01:05:27.463Z,19.06
2018-10-02T01:06:27.767Z,19.09
2018-10-02T01:07:27.904Z,19.09
2018-10-02T01:08:27.268Z,19.08
2018-10-02T01:09:27.393Z,19.1
2018-10-02T01:10:27.328Z,19.08
2018-10-02T01:11:27.397Z,19.08
2018-10-02T01:12:27.643Z,19.05
2018-10-02T01:13:27.449Z,19.07
2018-10-02T01:14:27.777Z,19.08
2018-10-02T01:15:27.236Z,19.06
2018-10-02T01:16:27.394Z,19.06
2018-10-02T01:17:27.314Z,19.07
2018-10-02T01:18:27.509Z,19.1
2018-10-02T01:19:27.690Z,19.07
2018-10-02T01:20:27.382Z,19.06
2018-10-02T01:21:27.474Z,19.09
2018-10-02T01:22:27.306Z,19.08
2018-10-02T01:23:27.226Z,19.09
2018-10-02T01:24:27.297Z,19.09
2018-10-02T01:25:27.857Z,19.07
2018-10-02T01:26:27.495Z,19.09
2018-10-02T01:27:27.351Z,19.09
2018-10-02T01:28:27.342Z,19.07
2018-10-02T01:29:27.247Z,19.07
2018-10-02T01:30:27.234Z,19.07
2018-10-02T01:31:27.345Z,19.08
2018-10-02T01:32:27.701Z,19.08
2018-10-02T01:33:27.341Z,19.06
2018-10-02T01:34:27.502Z,19.08
2018-10-02T01:35:27.391Z,19.06
2018-10-02T01:36:27.446Z,19.07
2018-10-02T01:37:27.310Z,19.06
2018-10-02T01:38:27.416Z,19.06
2018-10-02T01:39:27.392Z,19.06
2018-10-02T01:40:27.291Z,19.05
2018-10-02T01:41:27.244Z,19.01
2018-10-02T01:42:27.489Z,19.02
2018-10-02T01:43:27.436Z,19.02
2018-10-02T01:44:27.752Z,19.03
2018-10-02T01:45:27.417Z,19.05
2018-10-02T01:46:27.454Z,19.05
2018-10-02T01:47:27.292Z,19.03
2018-10-02T01:48:27.289Z,19.06
2018-10-02T01:49:27.446Z,19.02
2018-10-02T01:50:27.369Z,19.03
2018-10-02T01:51:27.233Z,19.03
2018-10-02T01:52:27.269Z,19.05
2018-10-02T01:53:27.323Z,19.03
2018-10-02T01:54:27.841Z,19.03
2018-10-02T01:55:27.373Z,19.06
2018-10-02T01:56:27.301Z,19.02
2018-10-02T01:57:27.194Z,19.05
2018-10-02T01:58:27.303Z,19.05
2018-10-02T01:59:27.243Z,19.05
2018-10-02T02:00:27.402Z,19.05
2018-10-02T02:01:27.386Z,19.05
2018-10-02T02:02:27.336Z,19.05
2018-10-02T02:03:27.353Z,19.07
2018-10-02T02:04:27.390Z,19.05
2018-10-02T02:05:27.416Z,19.05
2018-10-02T02:06:27.736Z,19.05
2018-10-02T02:07:27.261Z,19.05
2018-10-02T02:08:27.328Z,19
2018-10-02T02:09:27.319Z,19.02
2018-10-02T02:10:27.370Z,19.03
2018-10-02T02:11:27.555Z,19.02
2018-10-02T02:12:27.392Z,19.03
2018-10-02T02:13:27.394Z,19.02
2018-10-02T02:14:27.798Z,19.01
2018-10-02T02:15:27.675Z,19.03
2018-10-02T02:16:27.438Z,19.02
2018-10-02T02:17:27.287Z,19
2018-10-02T02:18:27.424Z,19.03
2018-10-02T02:19:27.713Z,19.01
2018-10-02T02:20:27.388Z,19.05
2018-10-02T02:21:27.327Z,19.03
2018-10-02T02:22:27.430Z,19.01
2018-10-02T02:23:27.495Z,19.03
2018-10-02T02:24:27.273Z,19.05
2018-10-02T02:25:27.500Z,19.01
2018-10-02T02:26:27.216Z,19.02
2018-10-02T02:27:27.838Z,19.03
2018-10-02T02:28:27.331Z,19
2018-10-02T02:29:27.156Z,19.01
2018-10-02T02:30:27.802Z,19.01
2018-10-02T02:31:27.331Z,19.02
2018-10-02T02:32:27.376Z,19.02
2018-10-02T02:33:27.327Z,19.02
2018-10-02T02:34:27.268Z,19
2018-10-02T02:35:27.725Z,18.99
2018-10-02T02:36:27.368Z,19.01
2018-10-02T02:37:27.339Z,19.01
2018-10-02T02:38:27.537Z,19.01
2018-10-02T02:39:27.561Z,19.03
2018-10-02T02:40:27.329Z,19.02
2018-10-02T02:41:27.303Z,18.98
2018-10-02T02:42:27.169Z,19.02
2018-10-02T02:43:27.217Z,19.01
2018-10-02T02:44:27.091Z,19.03
2018-10-02T02:45:27.574Z,19.02
2018-10-02T02:46:27.115Z,19.02
2018-10-02T02:47:27.346Z,19.02
2018-10-02T02:48:27.215Z,19.01
2018-10-02T02:49:27.374Z,18.99
2018-10-02T02:50:27.545Z,19
2018-10-02T02:51:27.276Z,19
2018-10-02T02:52:27.512Z,19.01
2018-10-02T02:53:27.296Z,19.01
2018-10-02T02:54:27.460Z,18.99
2018-10-02T02:55:27.330Z,19.01
2018-10-02T02:56:27.139Z,19
2018-10-02T02:57:27.311Z,19.01
2018-10-02T02:58:27.339Z,19.01
2018-10-02T02:59:27.602Z,19.01
2018-10-02T03:00:27.455Z,19.01
2018-10-02T03:01:27.256Z,19
2018-10-02T03:02:27.251Z,19.01
2018-10-02T03:03:27.494Z,19.01
2018-10-02T03:04:27.255Z,19.01
2018-10-02T03:05:27.372Z,19.01
2018-10-02T03:06:27.380Z,19.01
2018-10-02T03:07:27.559Z,19.01
2018-10-02T03:08:27.184Z,19.01
2018-10-02T03:09:27.447Z,19.01
2018-10-02T03:10:27.299Z,19
2018-10-02T03:11:27.373Z,18.98
2018-10-02T03:12:27.290Z,19.02
2018-10-02T03:13:27.265Z,19
2018-10-02T03:14:27.439Z,18.97
2018-10-02T03:15:27.500Z,18.98
2018-10-02T03:16:27.316Z,18.99
2018-10-02T03:17:27.482Z,19
2018-10-02T03:18:27.308Z,18.99
2018-10-02T03:19:27.868Z,18.99
2018-10-02T03:20:27.428Z,18.96
2018-10-02T03:21:27.322Z,18.98
2018-10-02T03:22:27.350Z,18.99
2018-10-02T03:23:27.289Z,18.97
2018-10-02T03:24:27.530Z,18.98
2018-10-02T03:25:27.465Z,18.96
2018-10-02T03:26:27.392Z,18.97
2018-10-02T03:27:27.337Z,18.98
2018-10-02T03:28:27.494Z,19
2018-10-02T03:29:27.598Z,19
2018-10-02T03:30:27.342Z,18.96
2018-10-02T03:31:27.853Z,18.94
2018-10-02T03:32:27.326Z,18.96
2018-10-02T03:33:27.363Z,18.99
2018-10-02T03:34:27.368Z,18.98
2018-10-02T03:35:27.293Z,18.99
2018-10-02T03:36:27.312Z,18.98
2018-10-02T03:37:27.634Z,18.97
2018-10-02T03:38:27.314Z,18.99
2018-10-02T03:39:27.477Z,18.99
2018-10-02T03:40:27.425Z,18.97
2018-10-02T03:41:27.548Z,18.97
2018-10-02T03:42:27.291Z,18.98
2018-10-02T03:43:27.460Z,18.98
2018-10-02T03:44:27.276Z,18.96
2018-10-02T03:45:27.392Z,18.98
2018-10-02T03:46:27.644Z,18.95
2018-10-02T03:47:27.276Z,18.96
2018-10-02T03:48:27.289Z,18.96
2018-10-02T03:49:27.259Z,18.96
2018-10-02T03:50:27.172Z,18.94
2018-10-02T03:51:27.312Z,18.98
2018-10-02T03:52:27.370Z,18.95
2018-10-02T03:53:27.347Z,18.96
2018-10-02T03:54:27.278Z,18.96
2018-10-02T03:55:27.220Z,18.95
2018-10-02T03:56:27.498Z,18.96
2018-10-02T03:57:27.579Z,18.95
2018-10-02T03:58:27.718Z,18.94
2018-10-02T03:59:27.306Z,18.95
2018-10-02T04:00:27.179Z,18.96
2018-10-02T04:01:27.290Z,18.94
2018-10-02T04:02:27.287Z,18.92
2018-10-02T04:03:28.135Z,18.92
2018-10-02T04:04:27.467Z,18.96
2018-10-02T04:05:27.186Z,18.94
2018-10-02T04:06:27.317Z,18.94
2018-10-02T04:07:27.236Z,18.94
2018-10-02T04:08:27.771Z,18.95
2018-10-02T04:09:27.284Z,18.94
2018-10-02T04:10:27.412Z,18.94
2018-10-02T04:11:27.437Z,18.94
2018-10-02T04:12:27.379Z,18.94
2018-10-02T04:13:27.434Z,18.93
2018-10-02T04:14:27.437Z,18.94
2018-10-02T04:15:27.461Z,18.93
2018-10-02T04:16:27.361Z,18.95
2018-10-02T04:17:27.190Z,18.95
2018-10-02T04:18:27.231Z,18.97
2018-10-02T04:19:27.433Z,18.93
2018-10-02T04:20:27.405Z,18.94
2018-10-02T04:21:27.222Z,18.94
2018-10-02T04:22:27.144Z,18.95
2018-10-02T04:23:27.330Z,18.95
2018-10-02T04:24:27.440Z,18.96
2018-10-02T04:25:27.434Z,18.95
2018-10-02T04:26:27.159Z,18.94
2018-10-02T04:27:27.186Z,18.94
2018-10-02T04:28:28.263Z,18.93
2018-10-02T04:29:27.245Z,18.93
2018-10-02T04:30:27.360Z,18.93
2018-10-02T04:31:27.238Z,18.94
2018-10-02T04:32:27.364Z,18.95
2018-10-02T04:33:27.210Z,18.94
2018-10-02T04:34:27.192Z,18.94
2018-10-02T04:35:27.346Z,18.94
2018-10-02T04:36:27.462Z,18.93
2018-10-02T04:37:27.303Z,18.94
2018-10-02T04:38:27.262Z,18.94
2018-10-02T04:39:28.202Z,18.92
2018-10-02T04:40:27.144Z,18.93
2018-10-02T04:41:27.363Z,18.94
2018-10-02T04:42:27.300Z,18.96
2018-10-02T04:43:27.401Z,18.95
2018-10-02T04:44:27.285Z,18.94
2018-10-02T04:45:27.171Z,18.93
2018-10-02T04:46:27.610Z,18.94
2018-10-02T04:47:27.506Z,18.92
2018-10-02T04:48:27.705Z,18.94
2018-10-02T04:49:27.219Z,18.93
2018-10-02T04:50:27.467Z,18.93
2018-10-02T04:51:27.653Z,18.93
2018-10-02T04:52:27.205Z,18.93
2018-10-02T04:53:27.676Z,18.93
2018-10-02T04:54:27.200Z,18.94
2018-10-02T04:55:27.309Z,18.93
2018-10-02T04:56:27.352Z,18.93
2018-10-02T04:57:27.231Z,18.96
2018-10-02T04:58:27.156Z,18.94
2018-10-02T04:59:27.673Z,18.93
2018-10-02T05:00:27.152Z,18.94
2018-10-02T05:01:27.286Z,18.94
2018-10-02T05:02:28.172Z,18.95
2018-10-02T05:03:27.381Z,18.94
2018-10-02T05:04:27.297Z,18.94
2018-10-02T05:05:27.570Z,18.95
2018-10-02T05:06:27.581Z,18.95
2018-10-02T05:07:27.490Z,18.93
2018-10-02T05:08:28.380Z,18.93
2018-10-02T05:09:27.126Z,18.97
2018-10-02T05:10:27.512Z,18.92
2018-10-02T05:11:27.311Z,18.94
2018-10-02T05:12:27.152Z,18.94
2018-10-02T05:13:27.361Z,18.94
2018-10-02T05:14:27.170Z,18.94
2018-10-02T05:15:27.396Z,18.96
2018-10-02T05:16:27.299Z,18.95
2018-10-02T05:17:27.715Z,18.97
2018-10-02T05:18:27.308Z,18.96
2018-10-02T05:19:27.778Z,18.95
2018-10-02T05:20:27.342Z,18.95
2018-10-02T05:21:27.153Z,18.93
2018-10-02T05:22:27.682Z,18.96
2018-10-02T05:23:27.115Z,18.95
2018-10-02T05:24:27.205Z,18.96
2018-10-02T05:25:27.198Z,18.94
2018-10-02T05:26:27.196Z,18.96
2018-10-02T05:27:28.413Z,18.97
2018-10-02T05:28:27.230Z,18.95
2018-10-02T05:29:27.245Z,18.95
2018-10-02T05:30:27.196Z,18.97
2018-10-02T05:31:27.363Z,18.95
2018-10-02T05:32:27.439Z,18.94
2018-10-02T05:33:27.379Z,18.97
2018-10-02T05:34:27.486Z,18.94
2018-10-02T05:35:28.114Z,18.94
2018-10-02T05:36:27.252Z,18.96
2018-10-02T05:37:27.267Z,18.95
2018-10-02T05:38:27.086Z,18.96
2018-10-02T05:39:27.230Z,18.97
2018-10-02T05:40:27.265Z,18.97
2018-10-02T05:41:27.129Z,19
2018-10-02T05:42:27.732Z,18.97
2018-10-02T05:43:27.135Z,18.95
2018-10-02T05:44:27.390Z,18.94
2018-10-02T05:45:27.302Z,18.97
2018-10-02T05:46:27.218Z,18.94
2018-10-02T05:47:27.373Z,18.96
2018-10-02T05:48:27.239Z,18.98
2018-10-02T05:49:27.395Z,18.94
2018-10-02T05:50:27.256Z,18.95
2018-10-02T05:51:27.064Z,18.96
2018-10-02T05:52:27.134Z,18.94
2018-10-02T05:53:27.275Z,18.96
2018-10-02T05:54:27.352Z,18.95
2018-10-02T05:55:27.185Z,18.96
2018-10-02T05:56:27.364Z,18.97
2018-10-02T05:57:27.246Z,18.96
2018-10-02T05:58:28.174Z,18.96
2018-10-02T05:59:27.282Z,18.97
2018-10-02T06:00:27.077Z,18.98
2018-10-02T06:01:27.452Z,18.96
2018-10-02T06:02:27.563Z,18.97
2018-10-02T06:03:27.766Z,18.96
2018-10-02T06:04:27.285Z,18.97
2018-10-02T06:05:27.289Z,18.96
2018-10-02T06:06:27.497Z,18.99
2018-10-02T06:07:27.201Z,18.96
2018-10-02T06:08:27.505Z,18.98
2018-10-02T06:09:27.308Z,18.98
2018-10-02T06:10:27.460Z,18.97
2018-10-02T06:11:27.183Z,18.96
2018-10-02T06:12:27.011Z,18.95
2018-10-02T06:13:27.389Z,18.97
2018-10-02T06:14:27.074Z,18.97
2018-10-02T06:15:27.305Z,18.96
2018-10-02T06:16:27.340Z,18.95
2018-10-02T06:17:27.385Z,18.97
2018-10-02T06:18:27.429Z,18.95
2018-10-02T06:19:27.258Z,18.94
2018-10-02T06:20:27.216Z,18.95
2018-10-02T06:21:27.291Z,18.98
2018-10-02T06:22:27.329Z,18.96
2018-10-02T06:23:27.559Z,19
2018-10-02T06:24:27.326Z,19.02
2018-10-02T06:25:27.188Z,19.02
2018-10-02T06:26:28.037Z,19
2018-10-02T06:27:27.300Z,19.01
2018-10-02T06:28:27.467Z,18.98
2018-10-02T06:29:27.323Z,18.99
2018-10-02T06:30:28.041Z,18.98
2018-10-02T06:31:27.316Z,19
2018-10-02T06:32:27.255Z,18.98
2018-10-02T06:33:27.277Z,18.99
2018-10-02T06:34:27.386Z,18.99
2018-10-02T06:35:27.260Z,19
2018-10-02T06:36:27.307Z,19.01
2018-10-02T06:37:27.295Z,19
2018-10-02T06:38:28.981Z,19.01
2018-10-02T06:39:27.246Z,19.05
2018-10-02T06:40:27.889Z,19.05
2018-10-02T06:41:27.456Z,19.07
2018-10-02T06:42:27.189Z,19.06
2018-10-02T06:43:27.494Z,19.1
2018-10-02T06:44:27.811Z,19.09
2018-10-02T06:45:27.567Z,19.08
2018-10-02T06:46:27.324Z,19.08
2018-10-02T06:47:27.223Z,19.08
2018-10-02T06:48:27.406Z,19.08
2018-10-02T06:49:27.259Z,19.09
2018-10-02T06:50:27.160Z,19.09
2018-10-02T06:51:28.102Z,19.1
2018-10-02T06:52:29.682Z,19.09
2018-10-02T06:53:27.306Z,19.11
2018-10-02T06:54:27.301Z,19.12
2018-10-02T06:55:27.446Z,19.13
2018-10-02T06:56:27.414Z,19.11
2018-10-02T06:57:27.739Z,19.13
2018-10-02T06:58:27.239Z,19.14
2018-10-02T06:59:27.151Z,19.13
2018-10-02T07:00:27.397Z,19.15
2018-10-02T07:01:27.174Z,19.16
2018-10-02T07:02:27.480Z,19.17
2018-10-02T07:03:27.158Z,19.15
2018-10-02T07:04:27.302Z,19.17
2018-10-02T07:05:27.503Z,19.18
2018-10-02T07:06:27.364Z,19.17
2018-10-02T07:07:27.387Z,19.17
2018-10-02T07:08:27.476Z,19.17
2018-10-02T07:09:27.243Z,19.18
2018-10-02T07:10:27.542Z,19.21
2018-10-02T07:11:27.136Z,19.18
2018-10-02T07:12:27.439Z,19.22
2018-10-02T07:13:27.016Z,19.2
2018-10-02T07:14:27.463Z,19.17
2018-10-02T07:15:27.374Z,19.17
2018-10-02T07:16:27.142Z,19.16
2018-10-02T07:17:27.687Z,19.15
2018-10-02T07:18:27.048Z,19.16
2018-10-02T07:19:27.212Z,19.14
2018-10-02T07:20:27.568Z,19.12
2018-10-02T07:21:27.228Z,19.14
2018-10-02T07:22:27.180Z,19.13
2018-10-02T07:23:27.156Z,19.12
2018-10-02T07:24:27.128Z,19.11
2018-10-02T07:25:27.102Z,19.11
2018-10-02T07:26:27.929Z,19.11
2018-10-02T07:27:29.092Z,19.12
2018-10-02T07:28:28.368Z,19.1
2018-10-02T07:29:27.379Z,19.09
2018-10-02T07:30:27.494Z,19.12
2018-10-02T07:31:27.455Z,19.1
2018-10-02T07:32:27.525Z,19.1
2018-10-02T07:33:27.278Z,19.12
2018-10-02T07:34:27.178Z,19.08
2018-10-02T07:35:27.493Z,19.08
2018-10-02T07:36:27.721Z,19.09
2018-10-02T07:37:27.740Z,19.09
2018-10-02T07:38:28.019Z,19.09
2018-10-02T07:39:27.267Z,19.08
2018-10-02T07:40:27.544Z,19.07
2018-10-02T07:41:27.800Z,19.08
2018-10-02T07:42:27.901Z,19.08
2018-10-02T07:43:27.257Z,19.07
2018-10-02T07:44:27.566Z,19.05
2018-10-02T07:45:27.509Z,19.05
2018-10-02T07:46:27.377Z,19.08
2018-10-02T07:47:27.551Z,19.07
2018-10-02T07:48:27.867Z,19.07
2018-10-02T07:49:27.230Z,19.06
2018-10-02T07:50:27.480Z,19.06
2018-10-02T07:51:27.415Z,19.05
2018-10-02T07:52:27.130Z,19.05
2018-10-02T07:53:27.506Z,19.07
2018-10-02T07:54:27.183Z,19.08
2018-10-02T07:55:27.931Z,19.05
2018-10-02T07:56:27.666Z,19.03
2018-10-02T07:57:27.272Z,19.05
2018-10-02T07:58:27.437Z,19.05
2018-10-02T07:59:27.442Z,19.01
2018-10-02T08:00:27.219Z,19.06
2018-10-02T08:01:27.564Z,19.05
2018-10-02T08:02:27.870Z,19.05
2018-10-02T08:03:27.419Z,19.06
2018-10-02T08:04:27.248Z,19.03
2018-10-02T08:05:27.678Z,19.05
2018-10-02T08:06:27.048Z,19.05
2018-10-02T08:07:27.109Z,19.03
2018-10-02T08:08:27.637Z,19.03
2018-10-02T08:09:27.134Z,19.05
2018-10-02T08:10:27.374Z,19.05
2018-10-02T08:11:27.456Z,19.02
2018-10-02T08:12:28.891Z,19.02
2018-10-02T08:13:27.749Z,19.02
2018-10-02T08:14:27.356Z,19.02
2018-10-02T08:15:27.070Z,19.05
2018-10-02T08:16:27.171Z,19.03
2018-10-02T08:17:27.882Z,19.03
2018-10-02T08:18:27.189Z,19.05
2018-10-02T08:19:27.426Z,19.03
2018-10-02T08:20:27.682Z,19.01
2018-10-02T08:21:27.199Z,19.01
2018-10-02T08:22:27.212Z,19.01
2018-10-02T08:23:27.727Z,19.05
2018-10-02T08:24:27.201Z,19.02
2018-10-02T08:25:27.171Z,19.05
2018-10-02T08:26:27.356Z,19.05
2018-10-02T08:27:28.145Z,19.02
2018-10-02T08:28:27.235Z,19.05
2018-10-02T08:29:27.894Z,19
2018-10-02T08:30:28.326Z,19.02
2018-10-02T08:31:27.278Z,19.05
2018-10-02T08:32:27.564Z,19.03
2018-10-02T08:33:27.126Z,19.05
2018-10-02T08:34:27.203Z,19.05
2018-10-02T08:35:27.816Z,19.05
2018-10-02T08:36:27.690Z,19.05
2018-10-02T08:37:27.193Z,19.05
2018-10-02T08:38:27.426Z,19.03
2018-10-02T08:39:27.012Z,19.05
2018-10-02T08:40:27.201Z,19.03
2018-10-02T08:41:27.223Z,19.03
2018-10-02T08:42:27.220Z,19.02
2018-10-02T08:43:27.872Z,19.01
2018-10-02T08:44:27.478Z,18.99
2018-10-02T08:45:27.127Z,19.01
2018-10-02T08:46:27.171Z,19
2018-10-02T08:47:27.366Z,18.99
2018-10-02T08:48:27.070Z,19.03
2018-10-02T08:49:27.427Z,19.01
2018-10-02T08:50:27.636Z,19.01
2018-10-02T08:51:27.051Z,18.99
2018-10-02T08:52:27.190Z,18.99
2018-10-02T08:53:27.505Z,19.01
2018-10-02T08:54:27.040Z,19.01
2018-10-02T08:55:27.545Z,19.01
2018-10-02T08:56:27.159Z,19.01
2018-10-02T08:57:27.191Z,19.01
2018-10-02T08:58:27.156Z,19.01
2018-10-02T08:59:27.244Z,19.01
2018-10-02T09:00:27.541Z,18.99
2018-10-02T09:01:27.235Z,18.97
2018-10-02T09:02:27.121Z,18.99
2018-10-02T09:03:27.302Z,18.99
2018-10-02T09:04:27.160Z,19.01
2018-10-02T09:05:27.601Z,18.98
2018-10-02T09:06:27.226Z,19.01
2018-10-02T09:07:27.119Z,19
2018-10-02T09:08:27.226Z,19.02
2018-10-02T09:09:27.122Z,19
2018-10-02T09:10:27.737Z,18.99
2018-10-02T09:11:26.954Z,19.01
2018-10-02T09:12:27.421Z,19.01
2018-10-02T09:13:27.051Z,19.02
2018-10-02T09:14:27.265Z,19.01
2018-10-02T09:15:27.799Z,19
2018-10-02T09:16:28.217Z,19
2018-10-02T09:17:27.180Z,19
2018-10-02T09:18:27.499Z,19.01
2018-10-02T09:19:27.287Z,19.01
2018-10-02T09:20:27.004Z,19.01
2018-10-02T09:21:27.583Z,19.03
2018-10-02T09:22:27.681Z,19
2018-10-02T09:23:27.133Z,19.03
2018-10-02T09:24:27.398Z,19.01
2018-10-02T09:25:26.982Z,19
2018-10-02T09:26:27.227Z,18.99
2018-10-02T09:27:27.352Z,19.01
2018-10-02T09:28:27.692Z,19.01
2018-10-02T09:29:27.574Z,19
2018-10-02T09:30:28.465Z,18.98
2018-10-02T09:31:27.273Z,19
2018-10-02T09:32:27.172Z,18.98
2018-10-02T09:33:27.668Z,19.01
2018-10-02T09:34:27.298Z,18.98
2018-10-02T09:35:27.492Z,18.99
2018-10-02T09:36:28.070Z,19
2018-10-02T09:37:27.886Z,18.97
2018-10-02T09:38:27.248Z,18.99
2018-10-02T09:39:27.690Z,18.98
2018-10-02T09:40:27.631Z,18.99
2018-10-02T09:41:27.467Z,18.98
2018-10-02T09:42:27.395Z,18.98
2018-10-02T09:43:27.632Z,18.99
2018-10-02T09:44:27.135Z,18.98
2018-10-02T09:45:27.486Z,18.98
2018-10-02T09:46:27.147Z,18.96
2018-10-02T09:47:27.122Z,18.98
2018-10-02T09:48:28.106Z,18.98
2018-10-02T09:49:26.972Z,19
2018-10-02T09:50:27.483Z,18.98
2018-10-02T09:51:27.249Z,18.98
2018-10-02T09:52:27.141Z,19
2018-10-02T09:53:27.161Z,19
2018-10-02T09:54:27.422Z,18.99
2018-10-02T09:55:27.396Z,18.98
2018-10-02T09:56:27.767Z,18.97
2018-10-02T09:57:27.064Z,18.97
2018-10-02T09:58:27.672Z,18.98
2018-10-02T09:59:27.164Z,18.98
2018-10-02T10:00:27.536Z,18.97
2018-10-02T10:01:27.172Z,18.98
2018-10-02T10:02:27.238Z,18.97
2018-10-02T10:03:27.171Z,18.97
2018-10-02T10:04:27.701Z,18.94
2018-10-02T10:05:27.187Z,18.97
2018-10-02T10:06:27.089Z,18.97
2018-10-02T10:07:27.062Z,18.95
2018-10-02T10:08:26.946Z,18.97
2018-10-02T10:09:27.147Z,18.98
2018-10-02T10:10:27.851Z,18.98
2018-10-02T10:11:26.989Z,18.98
2018-10-02T10:12:27.006Z,18.98
2018-10-02T10:13:26.970Z,18.98
2018-10-02T10:14:27.109Z,18.96
2018-10-02T10:15:27.636Z,18.97
2018-10-02T10:16:27.542Z,18.96
2018-10-02T10:17:27.919Z,18.98
2018-10-02T10:18:27.100Z,19
2018-10-02T10:19:27.490Z,18.98
2018-10-02T10:20:27.373Z,18.98
2018-10-02T10:21:27.292Z,18.96
2018-10-02T10:22:27.464Z,18.97
2018-10-02T10:23:27.366Z,18.94
2018-10-02T10:24:27.188Z,18.96
2018-10-02T10:25:27.530Z,18.97
2018-10-02T10:26:27.459Z,18.98
2018-10-02T10:27:27.265Z,18.98
2018-10-02T10:28:27.633Z,18.96
2018-10-02T10:29:27.168Z,18.97
2018-10-02T10:30:27.001Z,18.95
2018-10-02T10:31:27.444Z,18.95
2018-10-02T10:32:27.240Z,18.98
2018-10-02T10:33:27.635Z,18.99
2018-10-02T10:34:27.629Z,18.97
2018-10-02T10:35:27.225Z,18.95
2018-10-02T10:36:27.046Z,18.97
2018-10-02T10:37:27.199Z,18.98
2018-10-02T10:38:26.950Z,18.97
2018-10-02T10:39:27.416Z,18.98
2018-10-02T10:40:27.352Z,18.95
2018-10-02T10:41:27.187Z,18.94
2018-10-02T10:42:27.431Z,18.93
2018-10-02T10:43:27.142Z,18.94
2018-10-02T10:44:27.564Z,18.96
2018-10-02T10:45:27.152Z,18.95
2018-10-02T10:46:27.540Z,18.97
2018-10-02T10:47:27.365Z,18.94
2018-10-02T10:48:27.314Z,18.96
2018-10-02T10:49:27.148Z,18.96
2018-10-02T10:50:26.935Z,18.94
2018-10-02T10:51:27.204Z,18.96
2018-10-02T10:52:27.490Z,18.98
2018-10-02T10:53:27.498Z,18.95
2018-10-02T10:54:27.306Z,18.95
2018-10-02T10:55:27.621Z,18.93
2018-10-02T10:56:27.701Z,18.96
2018-10-02T10:57:27.209Z,18.98
2018-10-02T10:58:27.462Z,18.95
2018-10-02T10:59:27.127Z,18.94
2018-10-02T11:00:27.388Z,18.98
2018-10-02T11:01:27.273Z,18.96
2018-10-02T11:02:27.328Z,18.94
2018-10-02T11:03:27.170Z,18.95
2018-10-02T11:04:27.397Z,18.96
2018-10-02T11:05:27.159Z,18.96
2018-10-02T11:06:27.078Z,18.96
2018-10-02T11:07:27.184Z,18.97
2018-10-02T11:08:27.406Z,18.94
2018-10-02T11:09:27.727Z,18.95
2018-10-02T11:10:27.342Z,18.94
2018-10-02T11:11:27.158Z,18.94
2018-10-02T11:12:27.526Z,18.95
2018-10-02T11:13:27.170Z,18.96
2018-10-02T11:14:26.957Z,18.97
2018-10-02T11:15:27.319Z,18.96
2018-10-02T11:16:27.139Z,18.96
2018-10-02T11:17:27.282Z,18.92
2018-10-02T11:18:27.362Z,18.95
2018-10-02T11:19:27.680Z,18.94
2018-10-02T11:20:27.192Z,18.94
2018-10-02T11:21:27.074Z,18.96
2018-10-02T11:22:27.075Z,18.94
2018-10-02T11:23:27.027Z,18.94
2018-10-02T11:24:27.149Z,18.95
2018-10-02T11:25:27.907Z,18.94
2018-10-02T11:26:27.159Z,18.92
2018-10-02T11:27:27.064Z,18.93
2018-10-02T11:28:26.982Z,18.97
2018-10-02T11:29:27.306Z,18.95
2018-10-02T11:30:27.093Z,18.96
2018-10-02T11:31:27.439Z,18.92
2018-10-02T11:32:27.021Z,18.94
2018-10-02T11:33:27.069Z,18.94
2018-10-02T11:34:27.369Z,18.94
2018-10-02T11:35:27.697Z,18.94
2018-10-02T11:36:27.126Z,18.93
2018-10-02T11:37:27.271Z,18.95
2018-10-02T11:38:27.066Z,18.94
2018-10-02T11:39:27.061Z,18.96
2018-10-02T11:40:27.046Z,18.93
2018-10-02T11:41:27.174Z,18.93
2018-10-02T11:42:27.107Z,18.94
2018-10-02T11:43:27.164Z,18.94
2018-10-02T11:44:28.649Z,18.92
2018-10-02T11:45:26.909Z,18.94
2018-10-02T11:46:27.034Z,18.94
2018-10-02T11:47:27.147Z,18.95
2018-10-02T11:48:27.137Z,18.94
2018-10-02T11:49:27.667Z,18.95
2018-10-02T11:50:27.034Z,18.95
2018-10-02T11:51:27.180Z,18.96
2018-10-02T11:52:27.148Z,18.96
2018-10-02T11:53:27.030Z,18.94
2018-10-02T11:54:27.210Z,18.95
2018-10-02T11:55:28.349Z,18.93
2018-10-02T11:56:27.199Z,18.93
2018-10-02T11:57:27.645Z,18.93
2018-10-02T11:58:27.082Z,18.94
2018-10-02T11:59:26.966Z,18.92
2018-10-02T12:00:27.712Z,18.94
2018-10-02T12:01:28.434Z,18.96
2018-10-02T12:02:27.411Z,18.94
2018-10-02T12:03:28.177Z,18.94
2018-10-02T12:04:27.431Z,18.92
2018-10-02T12:05:27.182Z,18.91
2018-10-02T12:06:27.101Z,18.94
2018-10-02T12:07:27.411Z,18.95
2018-10-02T12:08:27.098Z,18.91
2018-10-02T12:09:27.278Z,18.93
2018-10-02T12:10:27.416Z,18.92
2018-10-02T12:11:28.144Z,18.91
2018-10-02T12:12:27.438Z,18.95
2018-10-02T12:13:28.189Z,18.92
2018-10-02T12:14:29.632Z,18.91
2018-10-02T12:15:27.285Z,18.94
2018-10-02T12:16:27.178Z,18.95
2018-10-02T12:17:27.298Z,18.94
2018-10-02T12:18:27.122Z,18.96
2018-10-02T12:19:27.997Z,18.94
2018-10-02T12:20:27.097Z,18.93
2018-10-02T12:21:27.024Z,18.97
2018-10-02T12:22:27.222Z,18.94
2018-10-02T12:23:27.114Z,18.93
2018-10-02T12:24:27.429Z,18.94
2018-10-02T12:25:26.904Z,18.93
2018-10-02T12:26:27.444Z,18.92
2018-10-02T12:27:27.023Z,18.92
2018-10-02T12:28:27.664Z,18.94
2018-10-02T12:29:26.917Z,18.91
2018-10-02T12:30:27.216Z,18.94
2018-10-02T12:31:27.192Z,18.93
2018-10-02T12:32:26.926Z,18.89
2018-10-02T12:33:27.290Z,18.94
2018-10-02T12:34:27.165Z,18.92
2018-10-02T12:35:27.222Z,18.93
2018-10-02T12:36:27.187Z,18.94
2018-10-02T12:37:27.030Z,18.94
2018-10-02T12:38:27.588Z,18.92
2018-10-02T12:39:28.091Z,18.95
2018-10-02T12:40:27.115Z,18.94
2018-10-02T12:41:27.449Z,18.92
2018-10-02T12:42:27.102Z,18.94
2018-10-02T12:43:27.156Z,18.89
2018-10-02T12:44:27.497Z,18.93
2018-10-02T12:45:27.434Z,18.93
2018-10-02T12:46:27.394Z,18.93
2018-10-02T12:47:27.097Z,18.94
2018-10-02T12:48:27.499Z,18.93
2018-10-02T12:49:27.065Z,18.93
2018-10-02T12:50:26.990Z,18.91
2018-10-02T12:51:27.021Z,18.92
2018-10-02T12:52:27.715Z,18.91
2018-10-02T12:53:27.066Z,18.92
2018-10-02T12:54:27.100Z,18.91
2018-10-02T12:55:27.038Z,18.91
2018-10-02T12:56:27.203Z,18.91